PWSweather.com
Personal Weather Stations
Station Observations
DW1039
Liberty & Fairfield Townships, Hamilton, OH 45011

Liberty & Fairfield TownshipsHamilton, OH 45011

Lat: 39.3933, Lon: -84.477

Elevation: 780

Station Type: Davis Vantage Pro2 (Daytime Fan Aspirated)

http://www.lfweathercenter.com/

High Low Average
Temperature 82.5°F28.1°C 62.5°F16.9°C 70.4°F21.3°C
Dew Point 65.6°F18.7°C 57.6°F14.2°C 62.0°F16.7°C
Winds 16.0 mph 25.7 kmh Calm Calm 3.0 mph SW4.8 kmh SW
Wind Gusts 28.0 mph45.1 kmh -- 10.0 mph16.1 kmh
Humidity 86% 50% 76%
Pressure 30.06 in1017.9 mb 29.85 in1010.8 mb -
Precipitation 0.00 in0.0 mm - -
Hour Temp Dew Point Humidity Winds Wind Gusts Pressure Precip Precip Rate Daily Precip Total
12:00 AM 63.5°F17.5°C 58.3°F14.6°C 83% Calm Calm -- 30.06 in1017.9 mb 0.00 in0.0 mm 0.00 in0.0 mm 0.00 in0.0 mm
12:10 AM 63.5°F17.5°C 58.3°F14.6°C 83% Calm Calm -- 30.06 in1017.9 mb 0.00 in0.0 mm 0.00 in0.0 mm 0.00 in0.0 mm
12:20 AM 63.4°F17.4°C 58.2°F14.6°C 83% Calm Calm -- 30.06 in1017.9 mb 0.00 in0.0 mm 0.00 in0.0 mm 0.00 in0.0 mm
12:30 AM 63.1°F17.3°C 58.2°F14.6°C 84% Calm Calm -- 30.06 in1017.9 mb 0.00 in0.0 mm 0.00 in0.0 mm 0.00 in0.0 mm
12:40 AM 63.0°F17.2°C 58.1°F14.5°C 84% Calm Calm -- 30.05 in1017.6 mb 0.00 in0.0 mm 0.00 in0.0 mm 0.00 in0.0 mm
12:50 AM 62.8°F17.1°C 57.9°F14.4°C 84% Calm Calm 1.0 mph1.6 kmh 30.05 in1017.6 mb 0.00 in0.0 mm 0.00 in0.0 mm 0.00 in0.0 mm
01:00 AM 62.5°F16.9°C 57.6°F14.2°C 84% Calm Calm -- 30.05 in1017.6 mb 0.00 in0.0 mm 0.00 in0.0 mm 0.00 in0.0 mm
01:10 AM 62.5°F16.9°C 57.9°F14.4°C 85% Calm Calm 3.0 mph4.8 kmh 30.04 in1017.3 mb 0.00 in0.0 mm 0.00 in0.0 mm 0.00 in0.0 mm
01:20 AM 63.7°F17.6°C 59.1°F15.1°C 85% Calm Calm 4.0 mph6.4 kmh 30.04 in1017.3 mb 0.00 in0.0 mm 0.00 in0.0 mm 0.00 in0.0 mm
01:30 AM 64.1°F17.8°C 59.5°F15.3°C 85% 1.0 mph S1.6 kmh S 4.0 mph6.4 kmh 30.04 in1017.3 mb 0.00 in0.0 mm 0.00 in0.0 mm 0.00 in0.0 mm
01:40 AM 64.8°F18.2°C 59.9°F15.5°C 84% Calm Calm 5.0 mph8.0 kmh 30.04 in1017.3 mb 0.00 in0.0 mm 0.00 in0.0 mm 0.00 in0.0 mm
01:50 AM 65.1°F18.4°C 60.2°F15.7°C 84% Calm Calm 5.0 mph8.0 kmh 30.04 in1017.3 mb 0.00 in0.0 mm 0.00 in0.0 mm 0.00 in0.0 mm
02:00 AM 65.0°F18.3°C 59.7°F15.4°C 83% Calm Calm -- 30.04 in1017.3 mb 0.00 in0.0 mm 0.00 in0.0 mm 0.00 in0.0 mm
02:10 AM 64.5°F18.1°C 59.2°F15.1°C 83% Calm Calm -- 30.04 in1017.3 mb 0.00 in0.0 mm 0.00 in0.0 mm 0.00 in0.0 mm
02:20 AM 64.3°F17.9°C 59.4°F15.2°C 84% Calm Calm -- 30.04 in1017.3 mb 0.00 in0.0 mm 0.00 in0.0 mm 0.00 in0.0 mm
02:30 AM 64.7°F18.2°C 59.8°F15.4°C 84% Calm Calm -- 30.04 in1017.3 mb 0.00 in0.0 mm 0.00 in0.0 mm 0.00 in0.0 mm
02:40 AM 64.8°F18.2°C 59.9°F15.5°C 84% Calm Calm -- 30.04 in1017.3 mb 0.00 in0.0 mm 0.00 in0.0 mm 0.00 in0.0 mm
02:50 AM 65.1°F18.4°C 60.2°F15.7°C 84% Calm Calm 3.0 mph4.8 kmh 30.04 in1017.3 mb 0.00 in0.0 mm 0.00 in0.0 mm 0.00 in0.0 mm
03:00 AM 65.3°F18.5°C 60.4°F15.8°C 84% Calm Calm 5.0 mph8.0 kmh 30.04 in1017.3 mb 0.00 in0.0 mm 0.00 in0.0 mm 0.00 in0.0 mm
03:10 AM 65.4°F18.6°C 60.5°F15.8°C 84% Calm Calm 4.0 mph6.4 kmh 30.04 in1017.3 mb 0.00 in0.0 mm 0.00 in0.0 mm 0.00 in0.0 mm
03:20 AM 65.7°F18.7°C 60.7°F15.9°C 84% Calm Calm 6.0 mph9.7 kmh 30.04 in1017.3 mb 0.00 in0.0 mm 0.00 in0.0 mm 0.00 in0.0 mm
03:30 AM 65.7°F18.7°C 60.7°F15.9°C 84% Calm Calm 4.0 mph6.4 kmh 30.04 in1017.3 mb 0.00 in0.0 mm 0.00 in0.0 mm 0.00 in0.0 mm
03:40 AM 65.5°F18.6°C 60.5°F15.8°C 84% Calm Calm 2.0 mph3.2 kmh 30.04 in1017.3 mb 0.00 in0.0 mm 0.00 in0.0 mm 0.00 in0.0 mm
03:50 AM 65.3°F18.5°C 60.4°F15.8°C 84% Calm Calm -- 30.04 in1017.3 mb 0.00 in0.0 mm 0.00 in0.0 mm 0.00 in0.0 mm
04:00 AM 65.3°F18.5°C 60.4°F15.8°C 84% 2.0 mph SSW3.2 kmh SSW 3.0 mph4.8 kmh 30.03 in1016.9 mb 0.00 in0.0 mm 0.00 in0.0 mm 0.00 in0.0 mm
04:10 AM 65.2°F18.4°C 60.3°F15.7°C 84% Calm Calm -- 30.03 in1016.9 mb 0.00 in0.0 mm 0.00 in0.0 mm 0.00 in0.0 mm
04:20 AM 64.9°F18.3°C 60.0°F15.6°C 84% Calm Calm 1.0 mph1.6 kmh 30.03 in1016.9 mb 0.00 in0.0 mm 0.00 in0.0 mm 0.00 in0.0 mm
04:30 AM 64.4°F18.0°C 59.5°F15.3°C 84% Calm Calm 2.0 mph3.2 kmh 30.03 in1016.9 mb 0.00 in0.0 mm 0.00 in0.0 mm 0.00 in0.0 mm
04:40 AM 63.9°F17.7°C 59.0°F15.0°C 84% Calm Calm 3.0 mph4.8 kmh 30.03 in1016.9 mb 0.00 in0.0 mm 0.00 in0.0 mm 0.00 in0.0 mm
04:50 AM 64.0°F17.8°C 59.4°F15.2°C 85% Calm Calm 1.0 mph1.6 kmh 30.03 in1016.9 mb 0.00 in0.0 mm 0.00 in0.0 mm 0.00 in0.0 mm
05:00 AM 64.1°F17.8°C 59.5°F15.3°C 85% Calm Calm 5.0 mph8.0 kmh 30.03 in1016.9 mb 0.00 in0.0 mm 0.00 in0.0 mm 0.00 in0.0 mm
05:10 AM 64.1°F17.8°C 59.5°F15.3°C 85% Calm Calm 3.0 mph4.8 kmh 30.03 in1016.9 mb 0.00 in0.0 mm 0.00 in0.0 mm 0.00 in0.0 mm
05:20 AM 64.1°F17.8°C 59.5°F15.3°C 85% Calm Calm 4.0 mph6.4 kmh 30.03 in1016.9 mb 0.00 in0.0 mm 0.00 in0.0 mm 0.00 in0.0 mm
05:30 AM 64.1°F17.8°C 59.5°F15.3°C 85% Calm Calm 5.0 mph8.0 kmh 30.03 in1016.9 mb 0.00 in0.0 mm 0.00 in0.0 mm 0.00 in0.0 mm
05:40 AM 64.0°F17.8°C 59.4°F15.2°C 85% Calm Calm 4.0 mph6.4 kmh 30.03 in1016.9 mb 0.00 in0.0 mm 0.00 in0.0 mm 0.00 in0.0 mm
05:50 AM 64.1°F17.8°C 59.5°F15.3°C 85% 3.0 mph S4.8 kmh S 4.0 mph6.4 kmh 30.03 in1016.9 mb 0.00 in0.0 mm 0.00 in0.0 mm 0.00 in0.0 mm
06:00 AM 64.1°F17.8°C 59.5°F15.3°C 85% Calm Calm 4.0 mph6.4 kmh 30.03 in1016.9 mb 0.00 in0.0 mm 0.00 in0.0 mm 0.00 in0.0 mm
06:10 AM 64.4°F18.0°C 59.8°F15.4°C 85% Calm Calm 7.0 mph11.3 kmh 30.03 in1016.9 mb 0.00 in0.0 mm 0.00 in0.0 mm 0.00 in0.0 mm
06:20 AM 64.6°F18.1°C 60.0°F15.6°C 85% 2.0 mph S3.2 kmh S 7.0 mph11.3 kmh 30.03 in1016.9 mb 0.00 in0.0 mm 0.00 in0.0 mm 0.00 in0.0 mm
06:30 AM 64.9°F18.3°C 60.3°F15.7°C 85% 3.0 mph SW4.8 kmh SW 9.0 mph14.5 kmh 30.03 in1016.9 mb 0.00 in0.0 mm 0.00 in0.0 mm 0.00 in0.0 mm
06:40 AM 65.4°F18.6°C 60.5°F15.8°C 84% 1.0 mph S1.6 kmh S 6.0 mph9.7 kmh 30.03 in1016.9 mb 0.00 in0.0 mm 0.00 in0.0 mm 0.00 in0.0 mm
06:50 AM 66.2°F19.0°C 61.2°F16.2°C 84% 4.0 mph S6.4 kmh S 14.0 mph22.5 kmh 30.03 in1016.9 mb 0.00 in0.0 mm 0.00 in0.0 mm 0.00 in0.0 mm
07:00 AM 67.0°F19.4°C 61.3°F16.3°C 82% Calm Calm 7.0 mph11.3 kmh 30.03 in1016.9 mb 0.00 in0.0 mm 0.00 in0.0 mm 0.00 in0.0 mm
07:10 AM 67.8°F19.9°C 61.8°F16.6°C 81% 10.0 mph SSW16.1 kmh SSW 10.0 mph16.1 kmh 30.03 in1016.9 mb 0.00 in0.0 mm 0.00 in0.0 mm 0.00 in0.0 mm
07:20 AM 68.3°F20.2°C 61.9°F16.6°C 80% 9.0 mph S14.5 kmh S 14.0 mph22.5 kmh 30.03 in1016.9 mb 0.00 in0.0 mm 0.00 in0.0 mm 0.00 in0.0 mm
07:30 AM 68.7°F20.4°C 62.3°F16.8°C 80% 2.0 mph SW3.2 kmh SW 7.0 mph11.3 kmh 30.03 in1016.9 mb 0.00 in0.0 mm 0.00 in0.0 mm 0.00 in0.0 mm
07:40 AM 69.1°F20.6°C 62.3°F16.8°C 79% 6.0 mph SW9.7 kmh SW 13.0 mph20.9 kmh 30.03 in1016.9 mb 0.00 in0.0 mm 0.00 in0.0 mm 0.00 in0.0 mm
07:50 AM 69.4°F20.8°C 62.3°F16.8°C 78% 4.0 mph SW6.4 kmh SW 11.0 mph17.7 kmh 30.04 in1017.3 mb 0.00 in0.0 mm 0.00 in0.0 mm 0.00 in0.0 mm
08:00 AM 69.5°F20.8°C 62.4°F16.9°C 78% 10.0 mph SSW16.1 kmh SSW 15.0 mph24.1 kmh 30.03 in1016.9 mb 0.00 in0.0 mm 0.00 in0.0 mm 0.00 in0.0 mm
08:10 AM 69.4°F20.8°C 61.9°F16.6°C 77% 2.0 mph SW3.2 kmh SW 15.0 mph24.1 kmh 30.03 in1016.9 mb 0.00 in0.0 mm 0.00 in0.0 mm 0.00 in0.0 mm
08:20 AM 69.2°F20.7°C 61.7°F16.5°C 77% Calm Calm 16.0 mph25.7 kmh 30.03 in1016.9 mb 0.00 in0.0 mm 0.00 in0.0 mm 0.00 in0.0 mm
08:30 AM 69.4°F20.8°C 62.3°F16.8°C 78% 6.0 mph S9.7 kmh S 13.0 mph20.9 kmh 30.03 in1016.9 mb 0.00 in0.0 mm 0.00 in0.0 mm 0.00 in0.0 mm
08:40 AM 69.9°F21.1°C 62.4°F16.9°C 77% 3.0 mph SSW4.8 kmh SSW 10.0 mph16.1 kmh 30.03 in1016.9 mb 0.00 in0.0 mm 0.00 in0.0 mm 0.00 in0.0 mm
08:50 AM 70.4°F21.3°C 62.1°F16.7°C 75% 5.0 mph WSW8.0 kmh WSW 13.0 mph20.9 kmh 30.03 in1016.9 mb 0.00 in0.0 mm 0.00 in0.0 mm 0.00 in0.0 mm
09:00 AM 71.0°F21.7°C 62.3°F16.8°C 74% 12.0 mph SW19.3 kmh SW 15.0 mph24.1 kmh 30.02 in1016.6 mb 0.00 in0.0 mm 0.00 in0.0 mm 0.00 in0.0 mm
09:10 AM 71.9°F22.2°C 62.8°F17.1°C 73% 3.0 mph S4.8 kmh S 13.0 mph20.9 kmh 30.02 in1016.6 mb 0.00 in0.0 mm 0.00 in0.0 mm 0.00 in0.0 mm
09:20 AM 72.4°F22.4°C 62.9°F17.2°C 72% 5.0 mph SSW8.0 kmh SSW 16.0 mph25.7 kmh 30.02 in1016.6 mb 0.00 in0.0 mm 0.00 in0.0 mm 0.00 in0.0 mm
09:30 AM 72.9°F22.7°C 62.1°F16.7°C 69% 10.0 mph SSW16.1 kmh SSW 19.0 mph30.6 kmh 30.02 in1016.6 mb 0.00 in0.0 mm 0.00 in0.0 mm 0.00 in0.0 mm
09:40 AM 73.8°F23.2°C 63.0°F17.2°C 69% 1.0 mph SW1.6 kmh SW 13.0 mph20.9 kmh 30.02 in1016.6 mb 0.00 in0.0 mm 0.00 in0.0 mm 0.00 in0.0 mm
09:50 AM 74.4°F23.6°C 63.2°F17.3°C 68% 4.0 mph SW6.4 kmh SW 21.0 mph33.8 kmh 30.01 in1016.3 mb 0.00 in0.0 mm 0.00 in0.0 mm 0.00 in0.0 mm
10:00 AM 74.8°F23.8°C 62.7°F17.1°C 66% 5.0 mph WSW8.0 kmh WSW 18.0 mph29.0 kmh 30.01 in1016.3 mb 0.00 in0.0 mm 0.00 in0.0 mm 0.00 in0.0 mm
10:10 AM 75.4°F24.1°C 63.7°F17.6°C 67% 4.0 mph SW6.4 kmh SW 13.0 mph20.9 kmh 30.01 in1016.3 mb 0.00 in0.0 mm 0.00 in0.0 mm 0.00 in0.0 mm
10:20 AM 75.5°F24.2°C 62.5°F16.9°C 64% 4.0 mph SW6.4 kmh SW 17.0 mph27.4 kmh 30.01 in1016.3 mb 0.00 in0.0 mm 0.00 in0.0 mm 0.00 in0.0 mm
10:30 AM 76.2°F24.6°C 63.1°F17.3°C 64% 4.0 mph SW6.4 kmh SW 17.0 mph27.4 kmh 30.01 in1016.3 mb 0.00 in0.0 mm 0.00 in0.0 mm 0.00 in0.0 mm
10:40 AM 76.2°F24.6°C 63.1°F17.3°C 64% 4.0 mph SW6.4 kmh SW 17.0 mph27.4 kmh 30.00 in1015.9 mb 0.00 in0.0 mm 0.00 in0.0 mm 0.00 in0.0 mm
10:50 AM 76.7°F24.8°C 63.2°F17.3°C 63% 3.0 mph S4.8 kmh S 15.0 mph24.1 kmh 30.00 in1015.9 mb 0.00 in0.0 mm 0.00 in0.0 mm 0.00 in0.0 mm
11:00 AM 77.3°F25.2°C 63.3°F17.4°C 62% 6.0 mph SSW9.7 kmh SSW 18.0 mph29.0 kmh 29.99 in1015.6 mb 0.00 in0.0 mm 0.00 in0.0 mm 0.00 in0.0 mm
11:10 AM 77.3°F25.2°C 62.8°F17.1°C 61% 6.0 mph WSW9.7 kmh WSW 20.0 mph32.2 kmh 29.99 in1015.6 mb 0.00 in0.0 mm 0.00 in0.0 mm 0.00 in0.0 mm
11:20 AM 77.6°F25.3°C 63.1°F17.3°C 61% 8.0 mph SSW12.9 kmh SSW 18.0 mph29.0 kmh 29.98 in1015.2 mb 0.00 in0.0 mm 0.00 in0.0 mm 0.00 in0.0 mm
11:30 AM 78.1°F25.6°C 62.6°F17.0°C 59% 10.0 mph SW16.1 kmh SW 19.0 mph30.6 kmh 29.98 in1015.2 mb 0.00 in0.0 mm 0.00 in0.0 mm 0.00 in0.0 mm
11:40 AM 78.0°F25.6°C 62.0°F16.7°C 58% 10.0 mph SW16.1 kmh SW 17.0 mph27.4 kmh 29.98 in1015.2 mb 0.00 in0.0 mm 0.00 in0.0 mm 0.00 in0.0 mm
11:50 AM 78.7°F25.9°C 62.2°F16.8°C 57% 6.0 mph WSW9.7 kmh WSW 17.0 mph27.4 kmh 29.98 in1015.2 mb 0.00 in0.0 mm 0.00 in0.0 mm 0.00 in0.0 mm
12:00 PM 78.6°F25.9°C 62.1°F16.7°C 57% 6.0 mph WSW9.7 kmh WSW 15.0 mph24.1 kmh 29.97 in1014.9 mb 0.00 in0.0 mm 0.00 in0.0 mm 0.00 in0.0 mm
12:10 PM 78.7°F25.9°C 61.7°F16.5°C 56% 5.0 mph W8.0 kmh W 21.0 mph33.8 kmh 29.97 in1014.9 mb 0.00 in0.0 mm 0.00 in0.0 mm 0.00 in0.0 mm
12:20 PM 79.8°F26.6°C 63.2°F17.3°C 57% 2.0 mph S3.2 kmh S 17.0 mph27.4 kmh 29.97 in1014.9 mb 0.00 in0.0 mm 0.00 in0.0 mm 0.00 in0.0 mm
12:30 PM 80.2°F26.8°C 62.6°F17.0°C 55% 2.0 mph WSW3.2 kmh WSW 12.0 mph19.3 kmh 29.96 in1014.6 mb 0.00 in0.0 mm 0.00 in0.0 mm 0.00 in0.0 mm
12:40 PM 79.5°F26.4°C 61.9°F16.6°C 55% 6.0 mph S9.7 kmh S 19.0 mph30.6 kmh 29.95 in1014.2 mb 0.00 in0.0 mm 0.00 in0.0 mm 0.00 in0.0 mm
12:50 PM 79.4°F26.3°C 62.9°F17.2°C 57% 7.0 mph W11.3 kmh W 24.0 mph38.6 kmh 29.95 in1014.2 mb 0.00 in0.0 mm 0.00 in0.0 mm 0.00 in0.0 mm
01:00 PM 79.6°F26.4°C 63.0°F17.2°C 57% 8.0 mph SW12.9 kmh SW 14.0 mph22.5 kmh 29.94 in1013.9 mb 0.00 in0.0 mm 0.00 in0.0 mm 0.00 in0.0 mm
01:10 PM 80.0°F26.7°C 62.9°F17.2°C 56% 12.0 mph WSW19.3 kmh WSW 16.0 mph25.7 kmh 29.93 in1013.5 mb 0.00 in0.0 mm 0.00 in0.0 mm 0.00 in0.0 mm
01:20 PM 80.2°F26.8°C 62.1°F16.7°C 54% 12.0 mph SSW19.3 kmh SSW 25.0 mph40.2 kmh 29.93 in1013.5 mb 0.00 in0.0 mm 0.00 in0.0 mm 0.00 in0.0 mm
01:30 PM 80.2°F26.8°C 62.1°F16.7°C 54% 7.0 mph SW11.3 kmh SW 19.0 mph30.6 kmh 29.92 in1013.2 mb 0.00 in0.0 mm 0.00 in0.0 mm 0.00 in0.0 mm
01:40 PM 80.2°F26.8°C 63.1°F17.3°C 56% 7.0 mph SW11.3 kmh SW 18.0 mph29.0 kmh 29.92 in1013.2 mb 0.00 in0.0 mm 0.00 in0.0 mm 0.00 in0.0 mm
01:50 PM 81.2°F27.3°C 61.9°F16.6°C 52% 10.0 mph WSW16.1 kmh WSW 15.0 mph24.1 kmh 29.91 in1012.9 mb 0.00 in0.0 mm 0.00 in0.0 mm 0.00 in0.0 mm
02:00 PM 82.1°F27.8°C 63.8°F17.7°C 54% 5.0 mph SW8.0 kmh SW 17.0 mph27.4 kmh 29.90 in1012.5 mb 0.00 in0.0 mm 0.00 in0.0 mm 0.00 in0.0 mm
02:10 PM 81.8°F27.7°C 61.9°F16.6°C 51% 8.0 mph SSW12.9 kmh SSW 25.0 mph40.2 kmh 29.90 in1012.5 mb 0.00 in0.0 mm 0.00 in0.0 mm 0.00 in0.0 mm
02:20 PM 82.0°F27.8°C 61.6°F16.4°C 50% 15.0 mph SW24.1 kmh SW 28.0 mph45.1 kmh 29.89 in1012.2 mb 0.00 in0.0 mm 0.00 in0.0 mm 0.00 in0.0 mm
02:30 PM 82.5°F28.1°C 63.1°F17.3°C 52% 10.0 mph SW16.1 kmh SW 21.0 mph33.8 kmh 29.88 in1011.9 mb 0.00 in0.0 mm 0.00 in0.0 mm 0.00 in0.0 mm
02:40 PM 82.2°F27.9°C 62.3°F16.8°C 51% 16.0 mph SSW25.7 kmh SSW 17.0 mph27.4 kmh 29.88 in1011.9 mb 0.00 in0.0 mm 0.00 in0.0 mm 0.00 in0.0 mm
02:50 PM 82.1°F27.8°C 62.2°F16.8°C 51% 9.0 mph SSW14.5 kmh SSW 20.0 mph32.2 kmh 29.88 in1011.9 mb 0.00 in0.0 mm 0.00 in0.0 mm 0.00 in0.0 mm
03:00 PM 80.6°F27.0°C 61.9°F16.6°C 53% 6.0 mph SW9.7 kmh SW 20.0 mph32.2 kmh 29.88 in1011.9 mb 0.00 in0.0 mm 0.00 in0.0 mm 0.00 in0.0 mm
03:10 PM 79.8°F26.6°C 60.6°F15.9°C 52% 9.0 mph S14.5 kmh S 24.0 mph38.6 kmh 29.87 in1011.5 mb 0.00 in0.0 mm 0.00 in0.0 mm 0.00 in0.0 mm
03:20 PM 79.4°F26.3°C 61.3°F16.3°C 54% 6.0 mph WSW9.7 kmh WSW 17.0 mph27.4 kmh 29.88 in1011.9 mb 0.00 in0.0 mm 0.00 in0.0 mm 0.00 in0.0 mm
03:30 PM 79.0°F26.1°C 61.5°F16.4°C 55% Calm Calm 15.0 mph24.1 kmh 29.87 in1011.5 mb 0.00 in0.0 mm 0.00 in0.0 mm 0.00 in0.0 mm
03:40 PM 78.4°F25.8°C 62.9°F17.2°C 59% 6.0 mph WSW9.7 kmh WSW 16.0 mph25.7 kmh 29.88 in1011.9 mb 0.00 in0.0 mm 0.00 in0.0 mm 0.00 in0.0 mm
03:50 PM 75.7°F24.3°C 64.4°F18.0°C 68% 3.0 mph WSW4.8 kmh WSW 6.0 mph9.7 kmh 29.88 in1011.9 mb 0.00 in0.0 mm 0.00 in0.0 mm 0.00 in0.0 mm
04:00 PM 74.4°F23.6°C 64.8°F18.2°C 72% 2.0 mph W3.2 kmh W 11.0 mph17.7 kmh 29.89 in1012.2 mb 0.00 in0.0 mm 0.00 in0.0 mm 0.00 in0.0 mm
04:10 PM 73.6°F23.1°C 65.6°F18.7°C 76% Calm Calm 2.0 mph3.2 kmh 29.89 in1012.2 mb 0.00 in0.0 mm 0.00 in0.0 mm 0.00 in0.0 mm
04:20 PM 70.3°F21.3°C 63.5°F17.5°C 79% 13.0 mph S20.9 kmh S 19.0 mph30.6 kmh 29.90 in1012.5 mb 0.06 in1.5 mm 0.36 in9.1 mm 0.06 in1.5 mm
04:30 PM 69.4°F20.8°C 64.0°F17.8°C 83% Calm Calm 9.0 mph14.5 kmh 29.89 in1012.2 mb 0.07 in1.8 mm 0.06 in1.5 mm 0.07 in1.8 mm
04:40 PM 69.9°F21.1°C 64.9°F18.3°C 84% Calm Calm 7.0 mph11.3 kmh 29.89 in1012.2 mb 0.07 in1.8 mm 0.00 in0.0 mm 0.07 in1.8 mm
04:50 PM 70.4°F21.3°C 65.0°F18.3°C 83% 2.0 mph SW3.2 kmh SW 6.0 mph9.7 kmh 29.89 in1012.2 mb 0.07 in1.8 mm 0.00 in0.0 mm 0.07 in1.8 mm
05:00 PM 71.0°F21.7°C 65.2°F18.4°C 82% Calm Calm 6.0 mph9.7 kmh 29.88 in1011.9 mb 0.07 in1.8 mm 0.00 in0.0 mm 0.07 in1.8 mm
05:10 PM 71.2°F21.8°C 65.4°F18.6°C 82% 9.0 mph SSW14.5 kmh SSW 11.0 mph17.7 kmh 29.88 in1011.9 mb 0.07 in1.8 mm 0.00 in0.0 mm 0.07 in1.8 mm
05:20 PM 71.2°F21.8°C 65.4°F18.6°C 82% 1.0 mph SSW1.6 kmh SSW 7.0 mph11.3 kmh 29.89 in1012.2 mb 0.01 in0.3 mm 0.00 in0.0 mm 0.07 in1.8 mm
05:30 PM 71.0°F21.7°C 64.9°F18.3°C 81% Calm Calm 10.0 mph16.1 kmh 29.89 in1012.2 mb 0.00 in0.0 mm 0.00 in0.0 mm 0.07 in1.8 mm
05:40 PM 71.2°F21.8°C 64.7°F18.2°C 80% Calm Calm 7.0 mph11.3 kmh 29.88 in1011.9 mb 0.00 in0.0 mm 0.00 in0.0 mm 0.07 in1.8 mm
05:50 PM 71.3°F21.8°C 64.5°F18.1°C 79% Calm Calm 6.0 mph9.7 kmh 29.88 in1011.9 mb 0.00 in0.0 mm 0.00 in0.0 mm 0.07 in1.8 mm
06:00 PM 71.4°F21.9°C 64.2°F17.9°C 78% Calm Calm 4.0 mph6.4 kmh 29.88 in1011.9 mb 0.00 in0.0 mm 0.00 in0.0 mm 0.07 in1.8 mm
06:10 PM 71.2°F21.8°C 64.4°F18.0°C 79% 3.0 mph SSW4.8 kmh SSW 3.0 mph4.8 kmh 29.88 in1011.9 mb 0.00 in0.0 mm 0.00 in0.0 mm 0.07 in1.8 mm
06:20 PM 71.1°F21.7°C 64.3°F17.9°C 79% Calm Calm 7.0 mph11.3 kmh 29.87 in1011.5 mb 0.00 in0.0 mm 0.00 in0.0 mm 0.07 in1.8 mm
06:30 PM 71.2°F21.8°C 64.0°F17.8°C 78% 5.0 mph SSW8.0 kmh SSW 5.0 mph8.0 kmh 29.88 in1011.9 mb 0.00 in0.0 mm 0.00 in0.0 mm 0.07 in1.8 mm
06:40 PM 71.1°F21.7°C 63.9°F17.7°C 78% 2.0 mph S3.2 kmh S 7.0 mph11.3 kmh 29.87 in1011.5 mb 0.00 in0.0 mm 0.00 in0.0 mm 0.07 in1.8 mm
06:50 PM 70.9°F21.6°C 64.1°F17.8°C 79% Calm Calm 7.0 mph11.3 kmh 29.87 in1011.5 mb 0.00 in0.0 mm 0.00 in0.0 mm 0.07 in1.8 mm
07:00 PM 70.7°F21.5°C 64.2°F17.9°C 80% 4.0 mph S6.4 kmh S 10.0 mph16.1 kmh 29.86 in1011.2 mb 0.00 in0.0 mm 0.00 in0.0 mm 0.07 in1.8 mm
07:10 PM 70.4°F21.3°C 64.3°F17.9°C 81% 11.0 mph S17.7 kmh S 11.0 mph17.7 kmh 29.85 in1010.8 mb 0.00 in0.0 mm 0.00 in0.0 mm 0.07 in1.8 mm
07:20 PM 70.1°F21.2°C 64.0°F17.8°C 81% 7.0 mph S11.3 kmh S 13.0 mph20.9 kmh 29.85 in1010.8 mb 0.01 in0.3 mm 0.06 in1.5 mm 0.08 in2.0 mm
07:30 PM 70.3°F21.3°C 64.2°F17.9°C 81% 6.0 mph SSW9.7 kmh SSW 16.0 mph25.7 kmh 29.85 in1010.8 mb 0.01 in0.3 mm 0.00 in0.0 mm 0.08 in2.0 mm
07:40 PM 70.2°F21.2°C 63.8°F17.7°C 80% 6.0 mph SW9.7 kmh SW 15.0 mph24.1 kmh 29.86 in1011.2 mb 0.01 in0.3 mm 0.00 in0.0 mm 0.08 in2.0 mm
07:50 PM 70.1°F21.2°C 64.0°F17.8°C 81% Calm Calm 11.0 mph17.7 kmh 29.87 in1011.5 mb 0.01 in0.3 mm 0.00 in0.0 mm 0.08 in2.0 mm
08:00 PM 69.7°F20.9°C 63.6°F17.6°C 81% Calm Calm 5.0 mph8.0 kmh 29.86 in1011.2 mb 0.02 in0.5 mm 0.01 in0.3 mm 0.09 in2.3 mm
08:10 PM 69.0°F20.6°C 63.3°F17.4°C 82% Calm Calm 9.0 mph14.5 kmh 29.87 in1011.5 mb 0.02 in0.5 mm 0.00 in0.0 mm 0.09 in2.3 mm
08:20 PM 68.7°F20.4°C 63.3°F17.4°C 83% 5.0 mph SSW8.0 kmh SSW 13.0 mph20.9 kmh 29.87 in1011.5 mb 0.01 in0.3 mm 0.00 in0.0 mm 0.09 in2.3 mm
08:30 PM 68.7°F20.4°C 63.3°F17.4°C 83% 4.0 mph SSW6.4 kmh SSW 14.0 mph22.5 kmh 29.87 in1011.5 mb 0.01 in0.3 mm 0.00 in0.0 mm 0.09 in2.3 mm
08:40 PM 68.7°F20.4°C 63.0°F17.2°C 82% 11.0 mph WSW17.7 kmh WSW 13.0 mph20.9 kmh 29.87 in1011.5 mb 0.01 in0.3 mm 0.00 in0.0 mm 0.09 in2.3 mm
08:50 PM 68.8°F20.4°C 63.4°F17.4°C 83% 7.0 mph WSW11.3 kmh WSW 16.0 mph25.7 kmh 29.87 in1011.5 mb 0.02 in0.5 mm 0.06 in1.5 mm 0.10 in2.5 mm
09:00 PM 68.8°F20.4°C 63.4°F17.4°C 83% 12.0 mph WSW19.3 kmh WSW 15.0 mph24.1 kmh 29.88 in1011.9 mb 0.01 in0.3 mm 0.00 in0.0 mm 0.10 in2.5 mm
09:10 PM 67.9°F19.9°C 62.9°F17.2°C 84% 11.0 mph SSW17.7 kmh SSW 18.0 mph29.0 kmh 29.87 in1011.5 mb 0.02 in0.5 mm 0.06 in1.5 mm 0.11 in2.8 mm
09:20 PM 67.1°F19.5°C 62.1°F16.7°C 84% 5.0 mph S8.0 kmh S 13.0 mph20.9 kmh 29.87 in1011.5 mb 0.02 in0.5 mm 0.00 in0.0 mm 0.11 in2.8 mm
09:30 PM 67.2°F19.6°C 62.5°F16.9°C 85% Calm Calm 12.0 mph19.3 kmh 29.87 in1011.5 mb 0.02 in0.5 mm 0.00 in0.0 mm 0.11 in2.8 mm
09:40 PM 67.2°F19.6°C 62.5°F16.9°C 85% 3.0 mph SSW4.8 kmh SSW 11.0 mph17.7 kmh 29.86 in1011.2 mb 0.02 in0.5 mm 0.00 in0.0 mm 0.11 in2.8 mm
09:51 PM 67.3°F19.6°C 62.6°F17.0°C 85% 3.0 mph S4.8 kmh S 10.0 mph16.1 kmh 29.86 in1011.2 mb 0.01 in0.3 mm 0.00 in0.0 mm 0.11 in2.8 mm
10:00 PM 67.4°F19.7°C 62.7°F17.1°C 85% Calm Calm 10.0 mph16.1 kmh 29.86 in1011.2 mb 0.01 in0.3 mm 0.00 in0.0 mm 0.11 in2.8 mm
10:10 PM 67.5°F19.7°C 62.8°F17.1°C 85% Calm Calm 7.0 mph11.3 kmh 29.87 in1011.5 mb 0.00 in0.0 mm 0.00 in0.0 mm 0.11 in2.8 mm
10:20 PM 67.5°F19.7°C 62.8°F17.1°C 85% Calm Calm 3.0 mph4.8 kmh 29.87 in1011.5 mb 0.00 in0.0 mm 0.00 in0.0 mm 0.11 in2.8 mm
10:30 PM 67.6°F19.8°C 62.9°F17.2°C 85% Calm Calm 4.0 mph6.4 kmh 29.87 in1011.5 mb 0.00 in0.0 mm 0.00 in0.0 mm 0.11 in2.8 mm
10:40 PM 67.5°F19.7°C 62.8°F17.1°C 85% 5.0 mph NW8.0 kmh NW 5.0 mph8.0 kmh 29.88 in1011.9 mb 0.00 in0.0 mm 0.00 in0.0 mm 0.11 in2.8 mm
10:50 PM 66.9°F19.4°C 62.3°F16.8°C 85% Calm Calm 7.0 mph11.3 kmh 29.88 in1011.9 mb 0.02 in0.5 mm 0.12 in3.0 mm 0.13 in3.3 mm
11:00 PM 66.2°F19.0°C 61.9°F16.6°C 86% Calm Calm 8.0 mph12.9 kmh 29.88 in1011.9 mb 0.03 in0.8 mm 0.01 in0.3 mm 0.14 in3.6 mm
11:10 PM 66.0°F18.9°C 61.7°F16.5°C 86% Calm Calm 3.0 mph4.8 kmh 29.88 in1011.9 mb 0.03 in0.8 mm 0.00 in0.0 mm 0.14 in3.6 mm
11:20 PM 66.0°F18.9°C 61.7°F16.5°C 86% Calm Calm -- 29.88 in1011.9 mb 0.03 in0.8 mm 0.00 in0.0 mm 0.14 in3.6 mm
11:30 PM 66.1°F18.9°C 61.8°F16.6°C 86% Calm Calm 4.0 mph6.4 kmh 29.88 in1011.9 mb 0.03 in0.8 mm 0.00 in0.0 mm 0.14 in3.6 mm
11:40 PM 66.1°F18.9°C 61.8°F16.6°C 86% Calm Calm 5.0 mph8.0 kmh 29.89 in1012.2 mb 0.03 in0.8 mm 0.00 in0.0 mm 0.14 in3.6 mm
11:50 PM 65.9°F18.8°C 61.6°F16.4°C 86% 3.0 mph WSW4.8 kmh WSW 8.0 mph12.9 kmh 29.89 in1012.2 mb 0.01 in0.3 mm 0.00 in0.0 mm 0.14 in3.6 mm